Terminal Aerodrome Forecast
Issued by NWS Charleston, WV

Current Version | Previous Version | Graphics & Text | Print | Product List | Glossary On
Versions: 1 2 3 4 5 6 7 8 9 10 11 12 13 14 15 16 17 18 19 20 21 22
351
FTUS41 KRLX 091503 AAA
TAFHTS
TAF AMD
KHTS 091503Z 0915/1012 26008KT P6SM -SHSN SCT015 BKN035
     FM091700 27009KT 3SM -SHSN BKN015
     FM092000 26009KT 6SM -SHSN OVC020
     FM100000 27009KT P6SM OVC025=

USA.gov is the U.S. government's official web portal to all federal, state and local government web resources and services.